Crane, Texas
Current Conditions -  °F | °C
As of 9:53 AM on Wednesday 28 Jan 2015 (Local Time) from KODO Reporting Station
Clear Clear  
Wind Chill: 62°   Ceiling: Unl
Heat Index: 62°   Visibility: 10mi
Dew Point: 46°   Wind: 8mph
Humidity: 56%   Direction: 240°WSW
Pressure: 30.16"   Gusts: NA
Location:  31.4°N, 102.35°W
Report Text: KODO 281553Z AUTO 24007KT 10SM CLR 17/08 A3016 RMK AO2 SLP188 T01670078
Loading
Personal Weather Stations






























Interactive Weather Map New forecast layout! Learn more

10-Day Weather Forecast

Advertisements
Track Severe Weather on mobile